sensor_id;sensor_type;location;lat;lon;timestamp;P1;durP1;ratioP1;P2;durP2;ratioP2
72929;SDS011;61073;54.260;20.816;2023-10-31T01:25:49;12.35;;;7.20;;
72929;SDS011;61073;54.260;20.816;2023-10-31T01:28:16;14.32;;;7.78;;
72929;SDS011;61073;54.260;20.816;2023-10-31T01:30:43;21.05;;;10.65;;
72929;SDS011;61073;54.260;20.816;2023-10-31T01:33:11;15.50;;;9.68;;
72929;SDS011;61073;54.260;20.816;2023-10-31T01:35:38;18.80;;;10.95;;
72929;SDS011;61073;54.260;20.816;2023-10-31T01:38:05;17.48;;;10.63;;
72929;SDS011;61073;54.260;20.816;2023-10-31T01:40:33;13.32;;;7.10;;
72929;SDS011;61073;54.260;20.816;2023-10-31T02:02:37;10.88;;;5.82;;
72929;SDS011;61073;54.260;20.816;2023-10-31T02:05:04;20.25;;;10.25;;
72929;SDS011;61073;54.260;20.816;2023-10-31T02:07:32;21.50;;;9.80;;
72929;SDS011;61073;54.260;20.816;2023-10-31T02:09:59;21.10;;;11.23;;
72929;SDS011;61073;54.260;20.816;2023-10-31T02:15:09;31.53;;;15.97;;
72929;SDS011;61073;54.260;20.816;2023-10-31T02:17:36;19.13;;;10.45;;
72929;SDS011;61073;54.260;20.816;2023-10-31T02:29:51;23.63;;;9.88;;
72929;SDS011;61073;54.260;20.816;2023-10-31T02:37:12;11.63;;;7.22;;
72929;SDS011;61073;54.260;20.816;2023-10-31T02:44:34;18.20;;;8.18;;
72929;SDS011;61073;54.260;20.816;2023-10-31T02:47:01;20.75;;;11.98;;
72929;SDS011;61073;54.260;20.816;2023-10-31T02:49:29;18.30;;;11.27;;
72929;SDS011;61073;54.260;20.816;2023-10-31T02:51:56;22.58;;;12.50;;
72929;SDS011;61073;54.260;20.816;2023-10-31T02:54:23;20.97;;;11.73;;
72929;SDS011;61073;54.260;20.816;2023-10-31T02:56:50;17.77;;;10.38;;
72929;SDS011;61073;54.260;20.816;2023-10-31T02:59:17;17.95;;;10.80;;
72929;SDS011;61073;54.260;20.816;2023-10-31T03:01:44;18.73;;;9.70;;
72929;SDS011;61073;54.260;20.816;2023-10-31T03:04:10;13.85;;;9.45;;
72929;SDS011;61073;54.260;20.816;2023-10-31T03:06:37;19.50;;;10.68;;
72929;SDS011;61073;54.260;20.816;2023-10-31T03:09:05;20.30;;;10.82;;
72929;SDS011;61073;54.260;20.816;2023-10-31T03:11:32;18.55;;;10.90;;
72929;SDS011;61073;54.260;20.816;2023-10-31T03:14:00;18.90;;;10.48;;
72929;SDS011;61073;54.260;20.816;2023-10-31T03:16:27;17.37;;;10.87;;
72929;SDS011;61073;54.260;20.816;2023-10-31T03:18:54;18.83;;;10.90;;
72929;SDS011;61073;54.260;20.816;2023-10-31T03:21:22;17.25;;;11.15;;
72929;SDS011;61073;54.260;20.816;2023-10-31T03:23:49;17.63;;;11.15;;
72929;SDS011;61073;54.260;20.816;2023-10-31T03:26:16;15.55;;;11.27;;
72929;SDS011;61073;54.260;20.816;2023-10-31T10:15:59;6.47;;;3.53;;
72929;SDS011;61073;54.260;20.816;2023-10-31T10:23:20;6.13;;;3.17;;
72929;SDS011;61073;54.260;20.816;2023-10-31T10:25:50;9.68;;;3.08;;
72929;SDS011;61073;54.260;20.816;2023-10-31T10:28:17;8.30;;;3.75;;
72929;SDS011;61073;54.260;20.816;2023-10-31T10:30:48;9.88;;;3.80;;
72929;SDS011;61073;54.260;20.816;2023-10-31T10:33:15;6.75;;;4.18;;
72929;SDS011;61073;54.260;20.816;2023-10-31T10:35:42;6.88;;;3.60;;
72929;SDS011;61073;54.260;20.816;2023-10-31T10:38:10;7.35;;;3.70;;
72929;SDS011;61073;54.260;20.816;2023-10-31T10:40:45;7.90;;;4.00;;
72929;SDS011;61073;54.260;20.816;2023-10-31T11:10:27;4.03;;;2.95;;
72929;SDS011;61073;54.260;20.816;2023-10-31T14:36:41;7.45;;;5.10;;
72929;SDS011;61073;54.260;20.816;2023-10-31T16:17:23;7.10;;;4.45;;
72929;SDS011;61073;54.260;20.816;2023-10-31T16:19:51;8.40;;;5.50;;
72929;SDS011;61073;54.260;20.816;2023-10-31T16:22:18;12.45;;;6.97;;
72929;SDS011;61073;54.260;20.816;2023-10-31T16:24:46;12.40;;;8.40;;
72929;SDS011;61073;54.260;20.816;2023-10-31T16:27:14;40.97;;;24.75;;
72929;SDS011;61073;54.260;20.816;2023-10-31T16:29:42;7.18;;;5.18;;
72929;SDS011;61073;54.260;20.816;2023-10-31T16:32:09;14.35;;;10.38;;
72929;SDS011;61073;54.260;20.816;2023-10-31T16:34:36;4.90;;;3.75;;
72929;SDS011;61073;54.260;20.816;2023-10-31T16:37:03;10.88;;;8.30;;
72929;SDS011;61073;54.260;20.816;2023-10-31T16:39:31;5.30;;;3.70;;
72929;SDS011;61073;54.260;20.816;2023-10-31T16:41:58;9.07;;;7.07;;
72929;SDS011;61073;54.260;20.816;2023-10-31T16:44:25;11.07;;;8.20;;
72929;SDS011;61073;54.260;20.816;2023-10-31T16:46:52;4.90;;;3.10;;
72929;SDS011;61073;54.260;20.816;2023-10-31T16:49:19;7.57;;;6.80;;
72929;SDS011;61073;54.260;20.816;2023-10-31T18:05:27;2.38;;;2.17;;
72929;SDS011;61073;54.260;20.816;2023-10-31T18:10:24;3.53;;;2.95;;
72929;SDS011;61073;54.260;20.816;2023-10-31T20:59:52;2.80;;;2.10;;
72929;SDS011;61073;54.260;20.816;2023-10-31T21:02:19;4.10;;;2.90;;
72929;SDS011;61073;54.260;20.816;2023-10-31T21:04:46;3.43;;;2.87;;
72929;SDS011;61073;54.260;20.816;2023-10-31T21:07:14;3.78;;;2.60;;
72929;SDS011;61073;54.260;20.816;2023-10-31T21:09:41;5.43;;;3.00;;
72929;SDS011;61073;54.260;20.816;2023-10-31T21:12:08;4.72;;;2.80;;
72929;SDS011;61073;54.260;20.816;2023-10-31T21:14:35;3.55;;;2.90;;
72929;SDS011;61073;54.260;20.816;2023-10-31T21:17:02;3.20;;;2.70;;
72929;SDS011;61073;54.260;20.816;2023-10-31T21:19:29;6.95;;;2.75;;
72929;SDS011;61073;54.260;20.816;2023-10-31T21:22:01;3.38;;;2.70;;
72929;SDS011;61073;54.260;20.816;2023-10-31T21:24:29;6.72;;;2.88;;
72929;SDS011;61073;54.260;20.816;2023-10-31T21:26:56;3.45;;;2.97;;
72929;SDS011;61073;54.260;20.816;2023-10-31T21:29:23;3.90;;;2.80;;
72929;SDS011;61073;54.260;20.816;2023-10-31T21:31:50;3.13;;;2.70;;
72929;SDS011;61073;54.260;20.816;2023-10-31T21:34:17;3.15;;;2.75;;
72929;SDS011;61073;54.260;20.816;2023-10-31T21:36:44;3.92;;;2.83;;
72929;SDS011;61073;54.260;20.816;2023-10-31T21:39:13;3.33;;;2.80;;
72929;SDS011;61073;54.260;20.816;2023-10-31T21:41:43;4.67;;;2.40;;
72929;SDS011;61073;54.260;20.816;2023-10-31T21:44:11;3.50;;;2.53;;
72929;SDS011;61073;54.260;20.816;2023-10-31T21:56:26;2.65;;;2.28;;
72929;SDS011;61073;54.260;20.816;2023-10-31T22:35:40;2.00;;;1.80;;
72929;SDS011;61073;54.260;20.816;2023-10-31T23:17:28;3.90;;;1.30;;
72929;SDS011;61073;54.260;20.816;2023-10-31T23:34:37;3.08;;;0.90;;
72929;SDS011;61073;54.260;20.816;2023-10-31T23:37:04;0.73;;;0.63;;
72929;SDS011;61073;54.260;20.816;2023-10-31T23:54:13;0.60;;;0.60;;
